Main page
METAR-TAF:

METAR-TAF

Airports :

Independence Municipal Airport

Independence, Kansas, United States

latitude: 37-09-30N, longitude: 095-46-42W, elevation: 823 ft

Current weather observation

The report was made 26 minutes ago, at 12:15 UTC
Wind 3 mph from the North/Northwest
Temperature 63°F
Humidity 88%
Pressure 29.87 in. Hg
Visibility: 10 miles
Scattered clouds at a height of 2800 ft
Broken clouds at a height of 3500 ft

METAR: KIDP 231215Z AUTO 33003KT 10SM SCT028 BKN035 17/15 A2987 RMK AO2 T01680153

Time: 07:41 (12:41 UTC)


TAF: missing

Weather observations and forecasts of more than 4000 airports (METAR and TAF reports).

The available stations are represented by yellow and red dots on the map.

Hover mouse over dot to see the name of the station.

Then click to see weather observations and forecasts.

To change the map : click on the green buttons with a black cross to zoom in, on the green button with a dash to zoom out, or on the green arrows for adjacent maps.


METAR-TAF: